sensor_id;sensor_type;location;lat;lon;timestamp;P1;durP1;ratioP1;P2;durP2;ratioP2
4294;SDS011;2161;53.634;10.100;2023-04-25T00:01:35;549.53;;;113.20;;
4294;SDS011;2161;53.634;10.100;2023-04-25T00:04:02;551.33;;;113.40;;
4294;SDS011;2161;53.634;10.100;2023-04-25T00:06:28;550.33;;;114.40;;
4294;SDS011;2161;53.634;10.100;2023-04-25T00:08:56;550.83;;;114.80;;
4294;SDS011;2161;53.634;10.100;2023-04-25T00:11:22;545.03;;;111.33;;
4294;SDS011;2161;53.634;10.100;2023-04-25T00:13:48;548.75;;;113.15;;
4294;SDS011;2161;53.634;10.100;2023-04-25T00:16:15;552.58;;;115.57;;
4294;SDS011;2161;53.634;10.100;2023-04-25T00:18:41;549.53;;;113.07;;
4294;SDS011;2161;53.634;10.100;2023-04-25T00:21:11;551.42;;;113.85;;
4294;SDS011;2161;53.634;10.100;2023-04-25T00:23:36;545.30;;;111.43;;
4294;SDS011;2161;53.634;10.100;2023-04-25T00:26:03;548.10;;;112.82;;
4294;SDS011;2161;53.634;10.100;2023-04-25T00:28:29;548.63;;;112.93;;
4294;SDS011;2161;53.634;10.100;2023-04-25T00:30:55;549.20;;;112.47;;
4294;SDS011;2161;53.634;10.100;2023-04-25T00:33:20;548.13;;;112.80;;
4294;SDS011;2161;53.634;10.100;2023-04-25T00:35:46;544.33;;;111.10;;
4294;SDS011;2161;53.634;10.100;2023-04-25T00:38:11;551.27;;;113.83;;
4294;SDS011;2161;53.634;10.100;2023-04-25T00:40:37;555.10;;;117.30;;
4294;SDS011;2161;53.634;10.100;2023-04-25T00:43:02;548.47;;;113.50;;
4294;SDS011;2161;53.634;10.100;2023-04-25T00:45:29;548.30;;;113.22;;
4294;SDS011;2161;53.634;10.100;2023-04-25T00:47:55;552.55;;;115.75;;
4294;SDS011;2161;53.634;10.100;2023-04-25T00:50:21;549.60;;;111.68;;
4294;SDS011;2161;53.634;10.100;2023-04-25T00:52:47;548.50;;;113.67;;
4294;SDS011;2161;53.634;10.100;2023-04-25T00:55:12;552.53;;;115.83;;
4294;SDS011;2161;53.634;10.100;2023-04-25T00:57:38;541.90;;;109.57;;
4294;SDS011;2161;53.634;10.100;2023-04-25T01:00:05;550.40;;;112.78;;
4294;SDS011;2161;53.634;10.100;2023-04-25T01:02:31;547.35;;;112.55;;
4294;SDS011;2161;53.634;10.100;2023-04-25T01:05:00;551.30;;;113.72;;
4294;SDS011;2161;53.634;10.100;2023-04-25T01:07:26;550.58;;;114.75;;
4294;SDS011;2161;53.634;10.100;2023-04-25T01:09:52;547.30;;;112.87;;
4294;SDS011;2161;53.634;10.100;2023-04-25T01:12:17;545.87;;;111.90;;
4294;SDS011;2161;53.634;10.100;2023-04-25T01:14:43;546.57;;;113.20;;
4294;SDS011;2161;53.634;10.100;2023-04-25T01:17:09;546.13;;;113.30;;
4294;SDS011;2161;53.634;10.100;2023-04-25T01:19:36;543.40;;;111.55;;
4294;SDS011;2161;53.634;10.100;2023-04-25T01:22:02;542.43;;;111.57;;
4294;SDS011;2161;53.634;10.100;2023-04-25T01:24:28;554.97;;;118.13;;
4294;SDS011;2161;53.634;10.100;2023-04-25T01:26:54;576.27;;;131.57;;
4294;SDS011;2161;53.634;10.100;2023-04-25T01:29:21;541.45;;;110.22;;
4294;SDS011;2161;53.634;10.100;2023-04-25T01:31:47;539.38;;;109.15;;
4294;SDS011;2161;53.634;10.100;2023-04-25T01:34:13;542.20;;;111.60;;
4294;SDS011;2161;53.634;10.100;2023-04-25T01:36:39;543.70;;;112.17;;
4294;SDS011;2161;53.634;10.100;2023-04-25T01:39:05;541.00;;;110.40;;
4294;SDS011;2161;53.634;10.100;2023-04-25T01:41:31;545.10;;;111.37;;
4294;SDS011;2161;53.634;10.100;2023-04-25T01:43:57;540.47;;;110.00;;
4294;SDS011;2161;53.634;10.100;2023-04-25T01:46:22;545.63;;;111.77;;
4294;SDS011;2161;53.634;10.100;2023-04-25T01:48:48;541.95;;;110.47;;
4294;SDS011;2161;53.634;10.100;2023-04-25T01:51:14;544.37;;;113.13;;
4294;SDS011;2161;53.634;10.100;2023-04-25T01:53:40;541.72;;;110.60;;
4294;SDS011;2161;53.634;10.100;2023-04-25T01:56:07;542.78;;;110.88;;
4294;SDS011;2161;53.634;10.100;2023-04-25T01:58:32;541.43;;;110.73;;
4294;SDS011;2161;53.634;10.100;2023-04-25T02:00:58;542.27;;;111.67;;
4294;SDS011;2161;53.634;10.100;2023-04-25T02:03:23;541.63;;;111.27;;
4294;SDS011;2161;53.634;10.100;2023-04-25T02:05:49;552.67;;;116.77;;
4294;SDS011;2161;53.634;10.100;2023-04-25T02:08:16;548.73;;;115.30;;
4294;SDS011;2161;53.634;10.100;2023-04-25T02:10:42;551.15;;;115.70;;
4294;SDS011;2161;53.634;10.100;2023-04-25T02:13:07;550.13;;;115.07;;
4294;SDS011;2161;53.634;10.100;2023-04-25T02:15:33;542.50;;;111.40;;
4294;SDS011;2161;53.634;10.100;2023-04-25T02:17:59;541.77;;;111.00;;
4294;SDS011;2161;53.634;10.100;2023-04-25T02:20:25;547.88;;;113.85;;
4294;SDS011;2161;53.634;10.100;2023-04-25T02:22:51;543.17;;;111.40;;
4294;SDS011;2161;53.634;10.100;2023-04-25T02:25:17;544.20;;;112.53;;
4294;SDS011;2161;53.634;10.100;2023-04-25T02:27:45;540.95;;;110.05;;
4294;SDS011;2161;53.634;10.100;2023-04-25T02:30:11;541.90;;;110.95;;
4294;SDS011;2161;53.634;10.100;2023-04-25T02:32:37;541.10;;;111.27;;
4294;SDS011;2161;53.634;10.100;2023-04-25T02:35:04;544.78;;;112.65;;
4294;SDS011;2161;53.634;10.100;2023-04-25T02:37:30;539.40;;;109.47;;
4294;SDS011;2161;53.634;10.100;2023-04-25T02:39:56;541.42;;;111.30;;
4294;SDS011;2161;53.634;10.100;2023-04-25T02:42:22;544.00;;;113.30;;
4294;SDS011;2161;53.634;10.100;2023-04-25T02:44:47;542.70;;;112.50;;
4294;SDS011;2161;53.634;10.100;2023-04-25T02:47:13;544.03;;;113.13;;
4294;SDS011;2161;53.634;10.100;2023-04-25T02:49:39;539.83;;;110.70;;
4294;SDS011;2161;53.634;10.100;2023-04-25T02:52:04;540.60;;;111.27;;
4294;SDS011;2161;53.634;10.100;2023-04-25T02:54:30;553.07;;;117.00;;
4294;SDS011;2161;53.634;10.100;2023-04-25T02:56:55;539.70;;;111.80;;
4294;SDS011;2161;53.634;10.100;2023-04-25T02:59:21;540.03;;;111.10;;
4294;SDS011;2161;53.634;10.100;2023-04-25T03:01:46;541.97;;;110.83;;
4294;SDS011;2161;53.634;10.100;2023-04-25T03:04:12;537.93;;;110.10;;
4294;SDS011;2161;53.634;10.100;2023-04-25T03:06:38;538.53;;;110.30;;
4294;SDS011;2161;53.634;10.100;2023-04-25T03:09:03;539.03;;;111.07;;
4294;SDS011;2161;53.634;10.100;2023-04-25T03:11:29;541.93;;;111.67;;
4294;SDS011;2161;53.634;10.100;2023-04-25T03:13:54;537.67;;;109.83;;
4294;SDS011;2161;53.634;10.100;2023-04-25T03:16:20;543.30;;;114.00;;
4294;SDS011;2161;53.634;10.100;2023-04-25T03:18:46;539.85;;;109.45;;
4294;SDS011;2161;53.634;10.100;2023-04-25T03:21:12;540.10;;;112.20;;
4294;SDS011;2161;53.634;10.100;2023-04-25T03:23:38;536.87;;;109.27;;
4294;SDS011;2161;53.634;10.100;2023-04-25T03:26:03;542.67;;;112.17;;
4294;SDS011;2161;53.634;10.100;2023-04-25T03:28:29;542.80;;;112.70;;
4294;SDS011;2161;53.634;10.100;2023-04-25T03:30:54;536.13;;;109.00;;
4294;SDS011;2161;53.634;10.100;2023-04-25T03:33:20;538.87;;;111.13;;
4294;SDS011;2161;53.634;10.100;2023-04-25T03:35:45;535.80;;;109.80;;
4294;SDS011;2161;53.634;10.100;2023-04-25T03:38:11;541.50;;;113.17;;
4294;SDS011;2161;53.634;10.100;2023-04-25T03:40:36;535.33;;;109.07;;
4294;SDS011;2161;53.634;10.100;2023-04-25T03:43:02;536.10;;;109.70;;
4294;SDS011;2161;53.634;10.100;2023-04-25T03:45:27;539.57;;;111.63;;
4294;SDS011;2161;53.634;10.100;2023-04-25T03:47:53;536.30;;;110.03;;
4294;SDS011;2161;53.634;10.100;2023-04-25T03:50:18;539.00;;;110.77;;
4294;SDS011;2161;53.634;10.100;2023-04-25T03:52:44;538.10;;;111.17;;
4294;SDS011;2161;53.634;10.100;2023-04-25T03:55:10;540.13;;;112.67;;
4294;SDS011;2161;53.634;10.100;2023-04-25T03:57:35;539.03;;;111.80;;
4294;SDS011;2161;53.634;10.100;2023-04-25T04:00:01;541.33;;;113.50;;
4294;SDS011;2161;53.634;10.100;2023-04-25T04:02:28;537.22;;;110.30;;
4294;SDS011;2161;53.634;10.100;2023-04-25T04:04:53;534.03;;;108.67;;
4294;SDS011;2161;53.634;10.100;2023-04-25T04:07:20;539.63;;;111.88;;
4294;SDS011;2161;53.634;10.100;2023-04-25T04:09:46;534.63;;;109.37;;
4294;SDS011;2161;53.634;10.100;2023-04-25T04:12:11;537.97;;;111.40;;
4294;SDS011;2161;53.634;10.100;2023-04-25T04:14:37;535.73;;;108.70;;
4294;SDS011;2161;53.634;10.100;2023-04-25T04:17:03;534.57;;;109.60;;
4294;SDS011;2161;53.634;10.100;2023-04-25T04:19:28;536.13;;;109.70;;
4294;SDS011;2161;53.634;10.100;2023-04-25T04:21:54;536.53;;;111.17;;
4294;SDS011;2161;53.634;10.100;2023-04-25T04:24:19;533.37;;;109.17;;
4294;SDS011;2161;53.634;10.100;2023-04-25T04:26:45;539.13;;;111.20;;
4294;SDS011;2161;53.634;10.100;2023-04-25T04:29:11;537.57;;;112.83;;
4294;SDS011;2161;53.634;10.100;2023-04-25T04:31:36;529.27;;;107.00;;
4294;SDS011;2161;53.634;10.100;2023-04-25T04:34:02;533.00;;;108.37;;
4294;SDS011;2161;53.634;10.100;2023-04-25T04:36:28;535.97;;;110.45;;
4294;SDS011;2161;53.634;10.100;2023-04-25T04:38:54;534.20;;;109.60;;
4294;SDS011;2161;53.634;10.100;2023-04-25T04:41:21;539.35;;;111.47;;
4294;SDS011;2161;53.634;10.100;2023-04-25T04:43:47;532.63;;;109.17;;
4294;SDS011;2161;53.634;10.100;2023-04-25T04:46:12;541.63;;;115.27;;
4294;SDS011;2161;53.634;10.100;2023-04-25T04:48:38;541.00;;;112.10;;
4294;SDS011;2161;53.634;10.100;2023-04-25T04:51:05;535.03;;;110.43;;
4294;SDS011;2161;53.634;10.100;2023-04-25T04:53:31;538.80;;;110.60;;
4294;SDS011;2161;53.634;10.100;2023-04-25T04:55:56;536.77;;;110.27;;
4294;SDS011;2161;53.634;10.100;2023-04-25T04:58:22;535.23;;;110.07;;
4294;SDS011;2161;53.634;10.100;2023-04-25T05:00:48;548.73;;;116.73;;
4294;SDS011;2161;53.634;10.100;2023-04-25T05:03:13;539.33;;;112.50;;
4294;SDS011;2161;53.634;10.100;2023-04-25T05:05:39;545.33;;;117.17;;
4294;SDS011;2161;53.634;10.100;2023-04-25T05:08:06;548.25;;;116.88;;
4294;SDS011;2161;53.634;10.100;2023-04-25T05:10:31;537.93;;;112.20;;
4294;SDS011;2161;53.634;10.100;2023-04-25T05:12:57;533.63;;;109.57;;
4294;SDS011;2161;53.634;10.100;2023-04-25T05:15:23;536.83;;;111.57;;
4294;SDS011;2161;53.634;10.100;2023-04-25T05:17:48;540.27;;;114.30;;
4294;SDS011;2161;53.634;10.100;2023-04-25T05:20:14;532.30;;;109.97;;
4294;SDS011;2161;53.634;10.100;2023-04-25T05:22:40;542.22;;;115.80;;
4294;SDS011;2161;53.634;10.100;2023-04-25T05:25:06;532.72;;;109.70;;
4294;SDS011;2161;53.634;10.100;2023-04-25T05:27:33;537.75;;;111.68;;
4294;SDS011;2161;53.634;10.100;2023-04-25T05:29:59;536.77;;;111.47;;
4294;SDS011;2161;53.634;10.100;2023-04-25T05:32:24;527.47;;;107.20;;
4294;SDS011;2161;53.634;10.100;2023-04-25T05:34:50;530.80;;;109.50;;
4294;SDS011;2161;53.634;10.100;2023-04-25T05:37:16;531.63;;;109.82;;
4294;SDS011;2161;53.634;10.100;2023-04-25T05:39:42;531.00;;;108.97;;
4294;SDS011;2161;53.634;10.100;2023-04-25T05:42:07;538.57;;;114.10;;
4294;SDS011;2161;53.634;10.100;2023-04-25T05:44:33;535.47;;;112.50;;
4294;SDS011;2161;53.634;10.100;2023-04-25T05:46:59;534.73;;;111.37;;
4294;SDS011;2161;53.634;10.100;2023-04-25T05:49:24;531.93;;;109.60;;
4294;SDS011;2161;53.634;10.100;2023-04-25T05:51:50;528.93;;;108.00;;
4294;SDS011;2161;53.634;10.100;2023-04-25T05:54:16;535.77;;;111.20;;
4294;SDS011;2161;53.634;10.100;2023-04-25T05:56:41;528.83;;;107.50;;
4294;SDS011;2161;53.634;10.100;2023-04-25T05:59:07;532.47;;;110.47;;
4294;SDS011;2161;53.634;10.100;2023-04-25T06:01:32;535.80;;;113.10;;
4294;SDS011;2161;53.634;10.100;2023-04-25T06:03:58;532.63;;;110.30;;
4294;SDS011;2161;53.634;10.100;2023-04-25T06:06:23;530.27;;;109.47;;
4294;SDS011;2161;53.634;10.100;2023-04-25T06:08:49;532.53;;;108.80;;
4294;SDS011;2161;53.634;10.100;2023-04-25T06:11:15;539.03;;;113.57;;
4294;SDS011;2161;53.634;10.100;2023-04-25T06:13:40;530.43;;;108.27;;
4294;SDS011;2161;53.634;10.100;2023-04-25T06:16:06;539.87;;;113.20;;
4294;SDS011;2161;53.634;10.100;2023-04-25T06:18:32;533.97;;;109.60;;
4294;SDS011;2161;53.634;10.100;2023-04-25T06:20:57;532.70;;;110.13;;
4294;SDS011;2161;53.634;10.100;2023-04-25T06:23:23;531.90;;;108.97;;
4294;SDS011;2161;53.634;10.100;2023-04-25T06:25:48;532.83;;;110.07;;
4294;SDS011;2161;53.634;10.100;2023-04-25T06:28:14;534.00;;;111.00;;
4294;SDS011;2161;53.634;10.100;2023-04-25T06:30:40;532.63;;;109.20;;
4294;SDS011;2161;53.634;10.100;2023-04-25T06:33:05;542.73;;;114.60;;
4294;SDS011;2161;53.634;10.100;2023-04-25T06:35:31;536.83;;;111.30;;
4294;SDS011;2161;53.634;10.100;2023-04-25T06:37:56;530.63;;;108.03;;
4294;SDS011;2161;53.634;10.100;2023-04-25T06:40:22;533.00;;;109.00;;
4294;SDS011;2161;53.634;10.100;2023-04-25T06:42:47;532.03;;;108.87;;
4294;SDS011;2161;53.634;10.100;2023-04-25T06:45:13;533.43;;;110.77;;
4294;SDS011;2161;53.634;10.100;2023-04-25T06:47:38;534.03;;;111.00;;
4294;SDS011;2161;53.634;10.100;2023-04-25T06:50:04;534.67;;;109.87;;
4294;SDS011;2161;53.634;10.100;2023-04-25T06:52:30;534.83;;;111.65;;
4294;SDS011;2161;53.634;10.100;2023-04-25T06:54:56;530.63;;;109.17;;
4294;SDS011;2161;53.634;10.100;2023-04-25T06:57:21;532.43;;;109.97;;
4294;SDS011;2161;53.634;10.100;2023-04-25T06:59:47;535.13;;;110.30;;
4294;SDS011;2161;53.634;10.100;2023-04-25T07:02:12;538.03;;;112.00;;
4294;SDS011;2161;53.634;10.100;2023-04-25T07:04:38;532.70;;;110.03;;
4294;SDS011;2161;53.634;10.100;2023-04-25T07:07:03;535.37;;;111.53;;
4294;SDS011;2161;53.634;10.100;2023-04-25T07:09:29;533.93;;;110.37;;
4294;SDS011;2161;53.634;10.100;2023-04-25T07:11:55;532.43;;;108.80;;
4294;SDS011;2161;53.634;10.100;2023-04-25T07:14:21;540.08;;;113.00;;
4294;SDS011;2161;53.634;10.100;2023-04-25T07:16:47;533.43;;;109.23;;
4294;SDS011;2161;53.634;10.100;2023-04-25T07:19:13;535.07;;;110.77;;
4294;SDS011;2161;53.634;10.100;2023-04-25T07:21:38;535.77;;;109.40;;
4294;SDS011;2161;53.634;10.100;2023-04-25T07:24:04;537.70;;;112.47;;
4294;SDS011;2161;53.634;10.100;2023-04-25T07:26:30;536.90;;;111.90;;
4294;SDS011;2161;53.634;10.100;2023-04-25T07:28:55;537.23;;;109.93;;
4294;SDS011;2161;53.634;10.100;2023-04-25T07:31:21;534.83;;;110.23;;
4294;SDS011;2161;53.634;10.100;2023-04-25T07:33:47;533.75;;;110.45;;
4294;SDS011;2161;53.634;10.100;2023-04-25T07:36:13;533.73;;;110.17;;
4294;SDS011;2161;53.634;10.100;2023-04-25T07:38:40;531.08;;;108.35;;
4294;SDS011;2161;53.634;10.100;2023-04-25T07:41:06;538.10;;;111.20;;
4294;SDS011;2161;53.634;10.100;2023-04-25T07:43:31;532.33;;;109.27;;
4294;SDS011;2161;53.634;10.100;2023-04-25T07:45:57;530.83;;;108.57;;
4294;SDS011;2161;53.634;10.100;2023-04-25T07:48:23;533.73;;;109.33;;
4294;SDS011;2161;53.634;10.100;2023-04-25T07:50:48;530.00;;;108.27;;
4294;SDS011;2161;53.634;10.100;2023-04-25T07:53:14;533.63;;;110.40;;
4294;SDS011;2161;53.634;10.100;2023-04-25T07:55:39;531.53;;;108.63;;
4294;SDS011;2161;53.634;10.100;2023-04-25T07:58:09;538.03;;;112.03;;
4294;SDS011;2161;53.634;10.100;2023-04-25T08:00:35;533.83;;;108.70;;
4294;SDS011;2161;53.634;10.100;2023-04-25T08:03:01;538.92;;;111.88;;
4294;SDS011;2161;53.634;10.100;2023-04-25T08:05:27;537.85;;;110.93;;
4294;SDS011;2161;53.634;10.100;2023-04-25T08:07:53;535.40;;;109.47;;
4294;SDS011;2161;53.634;10.100;2023-04-25T08:10:19;540.80;;;111.07;;
4294;SDS011;2161;53.634;10.100;2023-04-25T08:12:44;536.53;;;109.53;;
4294;SDS011;2161;53.634;10.100;2023-04-25T08:15:10;539.23;;;111.17;;
4294;SDS011;2161;53.634;10.100;2023-04-25T08:17:36;534.77;;;109.70;;
4294;SDS011;2161;53.634;10.100;2023-04-25T08:20:01;537.67;;;110.80;;
4294;SDS011;2161;53.634;10.100;2023-04-25T08:22:30;541.63;;;115.28;;
4294;SDS011;2161;53.634;10.100;2023-04-25T08:24:56;538.17;;;113.07;;
4294;SDS011;2161;53.634;10.100;2023-04-25T08:27:21;531.33;;;108.90;;
4294;SDS011;2161;53.634;10.100;2023-04-25T08:29:47;532.50;;;111.13;;
4294;SDS011;2161;53.634;10.100;2023-04-25T08:32:12;539.07;;;113.27;;
4294;SDS011;2161;53.634;10.100;2023-04-25T08:34:39;528.03;;;107.47;;
4294;SDS011;2161;53.634;10.100;2023-04-25T08:37:07;532.75;;;110.05;;
4294;SDS011;2161;53.634;10.100;2023-04-25T08:39:33;528.85;;;109.13;;
4294;SDS011;2161;53.634;10.100;2023-04-25T08:41:59;535.03;;;112.30;;
4294;SDS011;2161;53.634;10.100;2023-04-25T08:44:26;537.22;;;113.70;;
4294;SDS011;2161;53.634;10.100;2023-04-25T08:46:52;532.33;;;110.07;;
4294;SDS011;2161;53.634;10.100;2023-04-25T08:49:20;530.95;;;109.22;;
4294;SDS011;2161;53.634;10.100;2023-04-25T08:51:46;530.75;;;107.82;;
4294;SDS011;2161;53.634;10.100;2023-04-25T08:54:12;539.38;;;113.13;;
4294;SDS011;2161;53.634;10.100;2023-04-25T08:56:45;534.08;;;109.10;;
4294;SDS011;2161;53.634;10.100;2023-04-25T08:59:12;534.70;;;110.30;;
4294;SDS011;2161;53.634;10.100;2023-04-25T09:01:38;531.03;;;108.10;;
4294;SDS011;2161;53.634;10.100;2023-04-25T09:04:04;534.85;;;108.53;;
4294;SDS011;2161;53.634;10.100;2023-04-25T09:06:30;537.07;;;109.30;;
4294;SDS011;2161;53.634;10.100;2023-04-25T09:09:03;538.15;;;109.32;;
4294;SDS011;2161;53.634;10.100;2023-04-25T09:11:30;539.60;;;109.82;;
4294;SDS011;2161;53.634;10.100;2023-04-25T09:14:11;538.30;;;110.53;;
4294;SDS011;2161;53.634;10.100;2023-04-25T09:19:28;536.20;;;110.10;;
4294;SDS011;2161;53.634;10.100;2023-04-25T09:21:56;538.28;;;111.85;;
4294;SDS011;2161;53.634;10.100;2023-04-25T09:27:12;539.08;;;113.18;;
4294;SDS011;2161;53.634;10.100;2023-04-25T09:29:42;538.45;;;110.47;;
4294;SDS011;2161;53.634;10.100;2023-04-25T09:32:21;545.17;;;114.10;;
4294;SDS011;2161;53.634;10.100;2023-04-25T09:37:25;543.08;;;113.40;;
4294;SDS011;2161;53.634;10.100;2023-04-25T09:39:56;541.38;;;110.90;;
4294;SDS011;2161;53.634;10.100;2023-04-25T09:42:24;543.13;;;110.93;;
4294;SDS011;2161;53.634;10.100;2023-04-25T09:44:52;548.75;;;113.65;;
4294;SDS011;2161;53.634;10.100;2023-04-25T09:47:19;549.33;;;114.03;;
4294;SDS011;2161;53.634;10.100;2023-04-25T09:49:48;545.50;;;114.68;;
4294;SDS011;2161;53.634;10.100;2023-04-25T09:52:15;546.80;;;117.85;;
4294;SDS011;2161;53.634;10.100;2023-04-25T09:54:46;533.50;;;108.60;;
4294;SDS011;2161;53.634;10.100;2023-04-25T09:59:53;536.38;;;111.05;;
4294;SDS011;2161;53.634;10.100;2023-04-25T10:02:24;539.25;;;112.28;;
4294;SDS011;2161;53.634;10.100;2023-04-25T10:04:52;537.38;;;111.50;;
4294;SDS011;2161;53.634;10.100;2023-04-25T10:07:20;536.42;;;110.30;;
4294;SDS011;2161;53.634;10.100;2023-04-25T10:09:54;537.17;;;110.28;;
4294;SDS011;2161;53.634;10.100;2023-04-25T10:12:24;537.67;;;108.80;;
4294;SDS011;2161;53.634;10.100;2023-04-25T10:14:51;540.50;;;110.07;;
4294;SDS011;2161;53.634;10.100;2023-04-25T10:17:18;544.90;;;111.22;;
4294;SDS011;2161;53.634;10.100;2023-04-25T10:19:46;549.72;;;113.60;;
4294;SDS011;2161;53.634;10.100;2023-04-25T10:22:20;554.33;;;115.90;;
4294;SDS011;2161;53.634;10.100;2023-04-25T10:24:53;546.67;;;111.70;;
4294;SDS011;2161;53.634;10.100;2023-04-25T10:27:21;548.67;;;112.82;;
4294;SDS011;2161;53.634;10.100;2023-04-25T10:29:59;544.87;;;111.00;;
4294;SDS011;2161;53.634;10.100;2023-04-25T10:32:37;549.50;;;112.68;;
4294;SDS011;2161;53.634;10.100;2023-04-25T10:37:56;546.30;;;110.75;;
4294;SDS011;2161;53.634;10.100;2023-04-25T10:40:30;546.58;;;110.72;;
4294;SDS011;2161;53.634;10.100;2023-04-25T10:42:56;551.80;;;113.00;;
4294;SDS011;2161;53.634;10.100;2023-04-25T10:46:01;553.58;;;114.18;;
4294;SDS011;2161;53.634;10.100;2023-04-25T10:48:28;552.35;;;112.13;;
4294;SDS011;2161;53.634;10.100;2023-04-25T10:51:58;554.45;;;112.72;;
4294;SDS011;2161;53.634;10.100;2023-04-25T10:54:01;557.55;;;114.03;;
4294;SDS011;2161;53.634;10.100;2023-04-25T10:56:31;557.33;;;115.90;;
4294;SDS011;2161;53.634;10.100;2023-04-25T10:59:12;559.33;;;115.38;;
4294;SDS011;2161;53.634;10.100;2023-04-25T11:01:48;551.65;;;112.20;;
4294;SDS011;2161;53.634;10.100;2023-04-25T11:04:24;553.13;;;114.00;;
4294;SDS011;2161;53.634;10.100;2023-04-25T11:06:56;551.53;;;112.93;;
4294;SDS011;2161;53.634;10.100;2023-04-25T11:09:41;555.60;;;114.72;;
4294;SDS011;2161;53.634;10.100;2023-04-25T11:12:07;553.20;;;113.87;;
4294;SDS011;2161;53.634;10.100;2023-04-25T11:14:34;571.42;;;123.30;;
4294;SDS011;2161;53.634;10.100;2023-04-25T11:17:00;552.20;;;113.95;;
4294;SDS011;2161;53.634;10.100;2023-04-25T11:19:27;569.65;;;126.40;;
4294;SDS011;2161;53.634;10.100;2023-04-25T11:21:57;551.33;;;116.63;;
4294;SDS011;2161;53.634;10.100;2023-04-25T11:24:28;552.05;;;116.60;;
4294;SDS011;2161;53.634;10.100;2023-04-25T11:26:56;549.78;;;116.97;;
4294;SDS011;2161;53.634;10.100;2023-04-25T11:29:23;558.60;;;121.25;;
4294;SDS011;2161;53.634;10.100;2023-04-25T11:31:51;547.97;;;115.15;;
4294;SDS011;2161;53.634;10.100;2023-04-25T11:34:18;554.22;;;117.95;;
4294;SDS011;2161;53.634;10.100;2023-04-25T11:36:44;546.78;;;115.50;;
4294;SDS011;2161;53.634;10.100;2023-04-25T11:39:10;552.67;;;117.22;;
4294;SDS011;2161;53.634;10.100;2023-04-25T11:41:39;553.93;;;116.87;;
4294;SDS011;2161;53.634;10.100;2023-04-25T11:44:05;556.33;;;117.28;;
4294;SDS011;2161;53.634;10.100;2023-04-25T11:46:33;558.97;;;116.90;;
4294;SDS011;2161;53.634;10.100;2023-04-25T11:48:59;570.15;;;122.82;;
4294;SDS011;2161;53.634;10.100;2023-04-25T11:51:25;567.47;;;117.33;;
4294;SDS011;2161;53.634;10.100;2023-04-25T11:53:51;565.50;;;115.67;;
4294;SDS011;2161;53.634;10.100;2023-04-25T11:56:16;574.13;;;121.60;;
4294;SDS011;2161;53.634;10.100;2023-04-25T12:01:27;580.23;;;122.77;;
4294;SDS011;2161;53.634;10.100;2023-04-25T12:03:55;572.30;;;118.27;;
4294;SDS011;2161;53.634;10.100;2023-04-25T12:06:21;579.20;;;123.63;;
4294;SDS011;2161;53.634;10.100;2023-04-25T12:09:02;575.83;;;119.07;;
4294;SDS011;2161;53.634;10.100;2023-04-25T12:11:30;577.97;;;119.10;;
4294;SDS011;2161;53.634;10.100;2023-04-25T12:14:01;575.20;;;118.87;;
4294;SDS011;2161;53.634;10.100;2023-04-25T12:16:39;574.35;;;118.30;;
4294;SDS011;2161;53.634;10.100;2023-04-25T12:19:08;574.83;;;119.43;;
4294;SDS011;2161;53.634;10.100;2023-04-25T12:21:34;574.77;;;119.10;;
4294;SDS011;2161;53.634;10.100;2023-04-25T12:24:09;580.33;;;122.60;;
4294;SDS011;2161;53.634;10.100;2023-04-25T12:26:49;575.53;;;117.87;;
4294;SDS011;2161;53.634;10.100;2023-04-25T12:29:18;584.28;;;124.70;;
4294;SDS011;2161;53.634;10.100;2023-04-25T12:31:45;573.47;;;117.57;;
4294;SDS011;2161;53.634;10.100;2023-04-25T12:34:10;570.53;;;117.30;;
4294;SDS011;2161;53.634;10.100;2023-04-25T12:36:36;567.70;;;114.40;;
4294;SDS011;2161;53.634;10.100;2023-04-25T12:39:02;571.73;;;115.90;;
4294;SDS011;2161;53.634;10.100;2023-04-25T12:41:29;578.80;;;121.00;;
4294;SDS011;2161;53.634;10.100;2023-04-25T12:43:55;570.57;;;115.97;;
4294;SDS011;2161;53.634;10.100;2023-04-25T12:46:20;580.83;;;122.10;;
4294;SDS011;2161;53.634;10.100;2023-04-25T12:48:47;569.07;;;116.10;;
4294;SDS011;2161;53.634;10.100;2023-04-25T12:51:13;583.47;;;125.53;;
4294;SDS011;2161;53.634;10.100;2023-04-25T12:53:39;570.93;;;116.17;;
4294;SDS011;2161;53.634;10.100;2023-04-25T12:56:06;579.88;;;124.13;;
4294;SDS011;2161;53.634;10.100;2023-04-25T12:58:32;579.08;;;123.70;;
4294;SDS011;2161;53.634;10.100;2023-04-25T13:00:58;571.22;;;120.30;;
4294;SDS011;2161;53.634;10.100;2023-04-25T13:03:24;572.07;;;121.10;;
4294;SDS011;2161;53.634;10.100;2023-04-25T13:05:50;565.63;;;118.50;;
4294;SDS011;2161;53.634;10.100;2023-04-25T13:08:17;570.45;;;120.50;;
4294;SDS011;2161;53.634;10.100;2023-04-25T13:10:43;566.67;;;118.73;;
4294;SDS011;2161;53.634;10.100;2023-04-25T13:13:09;573.27;;;123.27;;
4294;SDS011;2161;53.634;10.100;2023-04-25T13:15:34;567.33;;;118.07;;
4294;SDS011;2161;53.634;10.100;2023-04-25T13:18:00;563.10;;;115.57;;
4294;SDS011;2161;53.634;10.100;2023-04-25T13:20:26;566.20;;;116.27;;
4294;SDS011;2161;53.634;10.100;2023-04-25T13:22:51;563.47;;;115.57;;
4294;SDS011;2161;53.634;10.100;2023-04-25T13:25:17;568.73;;;118.50;;
4294;SDS011;2161;53.634;10.100;2023-04-25T13:27:43;560.47;;;116.85;;
4294;SDS011;2161;53.634;10.100;2023-04-25T13:30:09;561.83;;;117.70;;
4294;SDS011;2161;53.634;10.100;2023-04-25T13:32:36;555.55;;;115.22;;
4294;SDS011;2161;53.634;10.100;2023-04-25T13:35:06;561.15;;;118.20;;
4294;SDS011;2161;53.634;10.100;2023-04-25T13:37:34;557.83;;;115.20;;
4294;SDS011;2161;53.634;10.100;2023-04-25T13:40:00;565.57;;;121.17;;
4294;SDS011;2161;53.634;10.100;2023-04-25T13:42:30;558.88;;;116.40;;
4294;SDS011;2161;53.634;10.100;2023-04-25T13:44:56;559.00;;;115.28;;
4294;SDS011;2161;53.634;10.100;2023-04-25T13:47:22;555.80;;;113.03;;
4294;SDS011;2161;53.634;10.100;2023-04-25T13:49:48;555.08;;;112.30;;
4294;SDS011;2161;53.634;10.100;2023-04-25T13:52:14;558.95;;;115.32;;
4294;SDS011;2161;53.634;10.100;2023-04-25T13:54:40;549.77;;;111.27;;
4294;SDS011;2161;53.634;10.100;2023-04-25T13:57:05;552.53;;;114.07;;
4294;SDS011;2161;53.634;10.100;2023-04-25T13:59:31;550.72;;;112.70;;
4294;SDS011;2161;53.634;10.100;2023-04-25T14:01:57;548.13;;;111.23;;
4294;SDS011;2161;53.634;10.100;2023-04-25T14:04:23;553.43;;;116.77;;
4294;SDS011;2161;53.634;10.100;2023-04-25T14:06:48;550.33;;;112.80;;
4294;SDS011;2161;53.634;10.100;2023-04-25T14:09:15;552.42;;;114.45;;
4294;SDS011;2161;53.634;10.100;2023-04-25T14:11:40;556.13;;;114.67;;
4294;SDS011;2161;53.634;10.100;2023-04-25T14:14:06;560.50;;;119.73;;
4294;SDS011;2161;53.634;10.100;2023-04-25T14:16:32;550.03;;;112.90;;
4294;SDS011;2161;53.634;10.100;2023-04-25T14:18:57;546.13;;;110.20;;
4294;SDS011;2161;53.634;10.100;2023-04-25T14:21:23;563.53;;;118.20;;
4294;SDS011;2161;53.634;10.100;2023-04-25T14:23:50;554.50;;;112.88;;